Time;durP1;ratioP1;P1;durP2;ratioP2;P2;SDS_P1;SDS_P2;PMS_P1;PMS_P2;Temp;Humidity;BMP_temperature;BMP_pressure;BME280_temperature;BME280_humidity;BME280_pressure;Samples;Min_cycle;Max_cycle;Signal;HPM_P1;HPM_P2
2022/05/20 00:00:06;;;;;;;8.65;2.90;;;16.40;74.60;;;;;;5056480;28;20090;-91
2022/05/20 00:02:34;;;;;;;9.57;3.03;;;16.40;74.60;;;;;;5035362;28;20045;-91
2022/05/20 00:05:01;;;;;;;9.07;3.45;;;16.40;74.70;;;;;;5036407;28;20518;-90
2022/05/20 00:07:28;;;;;;;7.38;2.80;;;16.40;74.70;;;;;;5036588;28;20055;-92
2022/05/20 00:09:55;;;;;;;8.60;4.13;;;16.40;74.80;;;;;;5053289;28;20045;-92
2022/05/20 00:12:22;;;;;;;9.40;3.42;;;16.40;74.80;;;;;;5063892;28;20049;-90
2022/05/20 00:14:49;;;;;;;7.57;3.15;;;16.40;74.80;;;;;;5054004;28;20048;-92
2022/05/20 00:17:16;;;;;;;8.88;3.30;;;16.40;74.90;;;;;;5052948;28;20040;-90
2022/05/20 00:19:43;;;;;;;12.82;3.65;;;16.40;74.90;;;;;;5036499;28;20052;-91
2022/05/20 00:22:11;;;;;;;6.55;3.10;;;16.40;74.80;;;;;;5054023;28;20449;-91
2022/05/20 00:25:45;;;;;;;8.07;3.22;;;16.40;74.80;;;;;;5060308;28;20056;-90
2022/05/20 00:27:25;;;;;;;8.50;3.13;;;16.40;74.90;;;;;;5063558;28;20123;-90
2022/05/20 00:29:53;;;;;;;8.77;3.85;;;16.30;74.90;;;;;;5054533;28;20047;-91
2022/05/20 00:32:20;;;;;;;7.65;3.22;;;16.30;74.90;;;;;;5034934;28;20052;-90
2022/05/20 00:34:47;;;;;;;10.93;3.40;;;16.30;74.80;;;;;;5053882;28;20048;-91
2022/05/20 00:37:13;;;;;;;8.02;3.28;;;16.30;74.90;;;;;;5036761;28;20049;-90
2022/05/20 00:39:40;;;;;;;7.03;2.83;;;16.20;74.80;;;;;;5070522;28;20105;-90
2022/05/20 00:42:17;;;;;;;8.40;3.45;;;16.20;74.80;;;;;;5038399;28;20403;-91
2022/05/20 00:44:44;;;;;;;8.77;3.30;;;16.20;74.80;;;;;;5053887;28;20103;-91
2022/05/20 00:47:13;;;;;;;8.07;3.30;;;16.20;74.80;;;;;;5042794;28;20563;-91
2022/05/20 00:49:45;;;;;;;8.48;2.90;;;16.10;74.90;;;;;;5037954;28;20049;-91
2022/05/20 00:52:15;;;;;;;11.80;3.53;;;16.10;74.90;;;;;;5053734;28;20107;-90
2022/05/20 00:54:50;;;;;;;13.30;4.30;;;16.10;74.90;;;;;;5052990;28;20048;-90
2022/05/20 00:57:36;;;;;;;10.68;3.63;;;16.10;74.90;;;;;;5053774;28;20049;-92
2022/05/20 01:00:09;;;;;;;8.63;3.30;;;16.10;74.90;;;;;;5039167;28;20080;-91
2022/05/20 01:02:38;;;;;;;8.10;3.60;;;16.00;75.00;;;;;;5051802;28;20049;-91
2022/05/20 01:05:14;;;;;;;9.40;3.75;;;16.00;75.00;;;;;;5053034;28;20349;-91
2022/05/20 01:07:42;;;;;;;6.95;3.35;;;16.00;75.00;;;;;;5056412;28;20102;-91
2022/05/20 01:10:09;;;;;;;9.93;3.88;;;16.00;75.10;;;;;;5056959;28;20065;-92
2022/05/20 01:12:36;;;;;;;8.25;3.60;;;15.90;75.10;;;;;;5045560;28;20422;-92
2022/05/20 01:15:05;;;;;;;6.88;3.10;;;15.90;75.20;;;;;;5069206;28;20411;-91
2022/05/20 01:17:31;;;;;;;9.32;3.95;;;15.90;75.20;;;;;;5038624;28;20098;-91
2022/05/20 01:19:59;;;;;;;11.20;4.63;;;15.90;75.30;;;;;;5066270;28;20049;-91
2022/05/20 01:22:40;;;;;;;8.30;3.10;;;15.90;75.30;;;;;;5057110;28;20053;-91
2022/05/20 01:25:09;;;;;;;9.15;3.38;;;15.90;75.40;;;;;;5056744;28;20461;-92
2022/05/20 01:27:42;;;;;;;9.30;3.95;;;15.90;75.40;;;;;;5062767;28;20056;-91
2022/05/20 01:30:12;;;;;;;8.48;3.65;;;15.90;75.40;;;;;;5071565;28;20047;-93
2022/05/20 01:32:39;;;;;;;8.35;3.70;;;15.90;75.40;;;;;;5045018;28;20056;-91
2022/05/20 01:35:11;;;;;;;10.65;4.00;;;15.90;75.50;;;;;;5055835;28;20049;-92
2022/05/20 01:37:38;;;;;;;6.38;3.35;;;15.90;75.50;;;;;;5060574;28;20045;-93
2022/05/20 01:40:07;;;;;;;12.30;3.60;;;15.90;75.50;;;;;;5044768;28;20091;-92
2022/05/20 01:43:02;;;;;;;9.40;3.08;;;15.90;75.60;;;;;;5056265;28;20064;-92
2022/05/20 01:45:39;;;;;;;7.45;3.38;;;15.90;75.60;;;;;;5046721;28;20049;-91
2022/05/20 01:48:33;;;;;;;9.77;3.42;;;15.80;75.70;;;;;;5039375;28;20049;-92
2022/05/20 01:51:08;;;;;;;7.43;3.45;;;15.90;75.70;;;;;;5069854;28;20045;-91
2022/05/20 01:53:58;;;;;;;7.45;3.63;;;15.80;75.70;;;;;;5061860;28;20087;-91
2022/05/20 01:56:33;;;;;;;8.68;3.72;;;15.80;75.80;;;;;;5065217;28;20048;-93
2022/05/20 01:59:20;;;;;;;8.68;3.28;;;15.90;75.80;;;;;;5068308;28;20506;-91
2022/05/20 02:01:59;;;;;;;8.13;3.80;;;15.80;75.80;;;;;;5056356;28;20049;-91
2022/05/20 02:04:48;;;;;;;9.75;3.92;;;15.90;75.90;;;;;;5056349;28;20048;-91
2022/05/20 02:07:29;;;;;;;8.88;4.18;;;15.80;75.90;;;;;;5051952;28;20110;-91
2022/05/20 02:10:29;;;;;;;6.30;3.70;;;15.80;76.00;;;;;;5055179;28;20045;-89
2022/05/20 02:12:59;;;;;;;8.25;3.47;;;15.80;76.00;;;;;;5064553;28;20117;-93
2022/05/20 02:15:44;;;;;;;6.18;3.78;;;15.80;76.00;;;;;;5062015;28;20045;-90
2022/05/20 02:18:19;;;;;;;7.47;3.75;;;15.80;76.00;;;;;;5038142;28;20556;-92
2022/05/20 02:20:50;;;;;;;5.07;3.08;;;15.80;76.00;;;;;;5038373;28;20472;-93
2022/05/20 02:23:25;;;;;;;7.18;3.50;;;15.70;76.00;;;;;;5037417;28;20048;-92
2022/05/20 02:25:57;;;;;;;9.98;3.83;;;15.80;76.00;;;;;;5066103;28;20090;-92
2022/05/20 02:28:35;;;;;;;7.63;3.75;;;15.80;76.00;;;;;;5039784;28;20079;-92
2022/05/20 02:31:04;;;;;;;8.02;3.60;;;15.70;76.10;;;;;;5054024;28;20049;-92
2022/05/20 02:33:32;;;;;;;8.43;4.32;;;15.70;76.10;;;;;;5047357;28;20462;-93
2022/05/20 02:36:17;;;;;;;8.60;3.55;;;15.70;76.10;;;;;;5056906;28;20056;-92
2022/05/20 02:38:44;;;;;;;8.90;3.90;;;15.70;76.20;;;;;;5059802;28;20056;-92
2022/05/20 02:41:11;;;;;;;11.13;3.90;;;15.70;76.20;;;;;;5064890;28;20044;-92
2022/05/20 02:43:38;;;;;;;8.10;3.92;;;15.70;76.20;;;;;;5037730;28;20106;-92
2022/05/20 02:46:05;;;;;;;11.13;4.90;;;15.70;76.20;;;;;;5064474;28;20118;-92
2022/05/20 02:48:34;;;;;;;9.43;3.85;;;15.70;76.20;;;;;;5071226;28;20044;-93
2022/05/20 02:51:01;;;;;;;10.25;3.90;;;15.70;76.30;;;;;;5061061;28;20063;-92
2022/05/20 02:53:29;;;;;;;9.73;3.80;;;15.70;76.30;;;;;;5044172;28;20426;-90
2022/05/20 02:55:56;;;;;;;8.98;4.22;;;15.70;76.30;;;;;;5043178;28;20053;-91
2022/05/20 03:04:11;;;;;;;10.20;3.80;;;15.70;76.40;;;;;;5063433;28;20045;-92
2022/05/20 03:06:44;;;;;;;8.05;4.10;;;15.60;76.40;;;;;;5061474;28;20052;-91
2022/05/20 03:09:12;;;;;;;9.68;4.38;;;15.60;76.40;;;;;;5039053;28;20040;-92
2022/05/20 03:11:40;;;;;;;6.95;3.85;;;15.60;76.40;;;;;;5054400;28;20580;-91
2022/05/20 03:14:09;;;;;;;10.65;4.38;;;15.60;76.40;;;;;;5064139;28;20057;-92
2022/05/20 03:16:38;;;;;;;9.38;4.03;;;15.60;76.50;;;;;;5064523;28;20056;-92
2022/05/20 03:19:06;;;;;;;7.80;4.20;;;15.60;76.50;;;;;;5047889;28;20067;-91
2022/05/20 03:21:35;;;;;;;8.93;4.22;;;15.60;76.50;;;;;;5055059;28;20417;-92
2022/05/20 03:24:05;;;;;;;9.93;4.93;;;15.60;76.50;;;;;;5067429;28;20477;-92
2022/05/20 03:26:33;;;;;;;10.38;4.30;;;15.60;76.50;;;;;;5035658;28;20044;-91
2022/05/20 03:29:02;;;;;;;9.30;5.05;;;15.60;76.60;;;;;;5070240;28;20053;-92
2022/05/20 03:31:32;;;;;;;8.10;4.65;;;15.60;76.60;;;;;;5050604;28;20041;-93
2022/05/20 03:34:05;;;;;;;9.30;4.57;;;15.60;76.60;;;;;;5036197;28;20051;-92
2022/05/20 03:36:37;;;;;;;9.38;4.40;;;15.60;76.60;;;;;;5053299;28;20084;-92
2022/05/20 03:39:05;;;;;;;11.40;4.72;;;15.60;76.60;;;;;;5054974;28;20588;-92
2022/05/20 03:41:33;;;;;;;9.38;4.45;;;15.60;76.60;;;;;;5047164;28;20056;-93
2022/05/20 03:44:02;;;;;;;9.45;4.50;;;15.50;76.50;;;;;;5064139;28;20041;-93
2022/05/20 03:46:30;;;;;;;12.45;5.32;;;15.50;76.50;;;;;;5055051;28;20067;-93
2022/05/20 03:48:59;;;;;;;8.50;4.35;;;15.50;76.50;;;;;;5059771;28;20045;-92
2022/05/20 03:51:26;;;;;;;10.43;4.40;;;15.50;76.50;;;;;;5035776;28;20469;-92
2022/05/20 03:53:53;;;;;;;14.23;4.53;;;15.50;76.40;;;;;;5047175;28;20044;-92
2022/05/20 03:56:20;;;;;;;9.15;4.50;;;15.50;76.40;;;;;;5054324;28;20052;-92
2022/05/20 03:58:47;;;;;;;8.15;4.50;;;15.40;76.40;;;;;;5068403;28;20049;-91
2022/05/20 04:04:00;;;;;;;9.35;4.75;;;15.40;76.40;;;;;;5059021;28;20409;-91
2022/05/20 04:06:27;;;;;;;12.40;5.15;;;15.40;76.30;;;;;;5058655;28;20049;-92
2022/05/20 04:08:54;;;;;;;12.45;4.63;;;15.40;76.40;;;;;;5052066;28;20040;-92
2022/05/20 04:11:23;;;;;;;11.10;4.60;;;15.40;76.40;;;;;;5045166;28;20113;-92
2022/05/20 04:13:49;;;;;;;15.10;4.78;;;15.40;76.40;;;;;;5037078;28;20126;-91
2022/05/20 04:16:17;;;;;;;9.98;4.70;;;15.40;76.40;;;;;;5047080;28;20567;-92
2022/05/20 04:18:44;;;;;;;8.82;4.60;;;15.40;76.50;;;;;;5035970;28;20057;-93
2022/05/20 04:21:13;;;;;;;10.30;4.75;;;15.40;76.50;;;;;;5049843;28;20044;-91
2022/05/20 04:23:41;;;;;;;12.60;4.80;;;15.40;76.50;;;;;;5070325;28;20098;-94
2022/05/20 04:26:09;;;;;;;10.13;4.88;;;15.30;76.60;;;;;;5061797;28;20052;-92
2022/05/20 04:28:36;;;;;;;9.57;4.63;;;15.40;76.60;;;;;;5042189;28;20067;-92
2022/05/20 04:31:05;;;;;;;9.38;5.60;;;15.30;76.60;;;;;;5053068;28;20462;-91
2022/05/20 04:33:33;;;;;;;8.35;4.85;;;15.30;76.70;;;;;;5059252;28;20060;-92
2022/05/20 04:36:00;;;;;;;10.80;4.65;;;15.30;76.70;;;;;;5039728;28;20036;-93
2022/05/20 04:38:27;;;;;;;11.88;4.85;;;15.30;76.80;;;;;;5062612;28;20441;-92
2022/05/20 04:49:11;;;;;;;9.23;4.70;;;15.30;76.90;;;;;;5068811;28;20063;-92
2022/05/20 04:51:39;;;;;;;12.45;5.75;;;15.30;77.00;;;;;;5039313;28;20053;-92
2022/05/20 04:56:54;;;;;;;12.52;5.43;;;15.30;77.10;;;;;;5060070;28;20099;-91
2022/05/20 04:59:21;;;;;;;10.93;5.40;;;15.30;77.10;;;;;;5056875;28;20109;-92
2022/05/20 05:01:51;;;;;;;11.85;4.93;;;15.30;77.10;;;;;;5066997;28;20049;-93
2022/05/20 05:04:20;;;;;;;9.10;5.18;;;15.30;77.10;;;;;;5056524;28;20092;-91
2022/05/20 05:06:47;;;;;;;11.98;5.20;;;15.30;77.20;;;;;;5055653;28;20052;-92
2022/05/20 05:09:15;;;;;;;10.10;4.88;;;15.40;77.20;;;;;;5044412;28;20048;-91
2022/05/20 05:11:42;;;;;;;9.00;5.13;;;15.30;77.20;;;;;;5071357;28;20111;-92
2022/05/20 05:14:13;;;;;;;8.05;4.10;;;15.30;77.20;;;;;;5046573;28;20510;-93
2022/05/20 05:16:40;;;;;;;12.77;5.03;;;15.30;77.30;;;;;;5042119;28;20106;-92
2022/05/20 05:19:17;;;;;;;10.15;5.00;;;15.40;77.30;;;;;;5048275;28;20048;-92
2022/05/20 05:21:58;;;;;;;9.88;5.25;;;15.40;77.30;;;;;;5047416;28;20045;-92
2022/05/20 05:24:31;;;;;;;9.30;4.80;;;15.40;77.40;;;;;;5071407;28;20102;-92
2022/05/20 05:27:04;;;;;;;7.53;4.20;;;15.40;77.40;;;;;;5044157;28;20066;-93
2022/05/20 05:29:33;;;;;;;9.48;4.60;;;15.40;77.40;;;;;;5071701;28;20054;-91
2022/05/20 05:32:00;;;;;;;11.65;4.53;;;15.40;77.40;;;;;;5051328;28;20392;-91
2022/05/20 05:34:27;;;;;;;9.80;4.72;;;15.40;77.40;;;;;;5047663;28;20044;-91
2022/05/20 05:36:54;;;;;;;9.65;5.20;;;15.50;77.50;;;;;;5052386;28;20049;-92
2022/05/20 05:39:21;;;;;;;11.00;4.72;;;15.50;77.50;;;;;;5064709;28;20091;-91
2022/05/20 05:41:48;;;;;;;9.07;4.13;;;15.50;77.50;;;;;;5052574;28;20048;-90
2022/05/20 05:44:15;;;;;;;9.15;4.32;;;15.50;77.50;;;;;;5055027;28;20052;-91
2022/05/20 05:46:42;;;;;;;10.38;4.88;;;15.50;77.50;;;;;;5058376;28;20048;-90
2022/05/20 05:49:09;;;;;;;8.95;4.55;;;15.60;77.50;;;;;;5051904;28;20526;-90
2022/05/20 05:51:36;;;;;;;12.73;5.20;;;15.60;77.50;;;;;;5064657;28;20519;-92
2022/05/20 05:54:03;;;;;;;8.73;5.05;;;15.60;77.50;;;;;;5052190;28;20099;-91
2022/05/20 05:56:30;;;;;;;10.05;4.50;;;15.70;77.60;;;;;;5046334;28;20051;-91
2022/05/20 05:58:57;;;;;;;9.95;4.65;;;15.70;77.60;;;;;;5053066;28;20064;-92
2022/05/20 06:01:24;;;;;;;9.48;4.78;;;15.70;77.60;;;;;;5045269;28;20063;-89
2022/05/20 06:03:51;;;;;;;9.95;4.18;;;15.70;77.60;;;;;;5063317;28;20426;-91
2022/05/20 06:06:17;;;;;;;13.55;4.75;;;15.80;77.60;;;;;;5064896;28;20052;-91
2022/05/20 06:08:44;;;;;;;14.27;5.85;;;15.80;77.60;;;;;;5064282;28;20044;-90
2022/05/20 06:11:12;;;;;;;13.68;5.15;;;15.80;77.60;;;;;;5055054;28;20494;-91
2022/05/20 06:13:39;;;;;;;11.43;4.35;;;15.80;77.60;;;;;;5055973;28;20053;-90
2022/05/20 06:16:06;;;;;;;9.65;4.68;;;15.90;77.60;;;;;;5053066;28;20056;-90
2022/05/20 06:18:39;;;;;;;;;;;15.90;77.60;;;;;;5061142;28;20048;-90
2022/05/20 06:21:06;;;;;;;9.95;4.80;;;15.90;77.50;;;;;;5065297;28;19925;-90
2022/05/20 06:23:33;;;;;;;7.75;3.80;;;15.90;77.50;;;;;;5052981;28;20041;-91
2022/05/20 06:26:00;;;;;;;8.77;4.72;;;15.90;77.50;;;;;;5058561;28;20045;-91
2022/05/20 06:28:42;;;;;;;10.23;4.00;;;15.90;77.50;;;;;;5054260;28;20564;-90
2022/05/20 06:31:09;;;;;;;10.43;4.70;;;15.90;77.50;;;;;;5058868;28;20059;-91
2022/05/20 06:33:36;;;;;;;13.63;5.10;;;16.00;77.50;;;;;;5046322;28;20059;-91
2022/05/20 06:41:35;;;;;;;11.68;4.22;;;16.10;77.50;;;;;;5058929;28;20053;-91
2022/05/20 06:44:02;;;;;;;11.05;4.80;;;16.10;77.50;;;;;;5059401;28;20044;-91
2022/05/20 06:46:29;;;;;;;12.02;4.43;;;16.10;77.50;;;;;;5056363;28;20575;-91
2022/05/20 06:49:00;;;;;;;12.38;4.38;;;16.20;77.50;;;;;;5046586;28;20514;-91
2022/05/20 06:51:34;;;;;;;9.95;4.75;;;16.20;77.50;;;;;;5062539;28;20045;-91
2022/05/20 06:54:03;;;;;;;7.20;3.63;;;16.30;77.50;;;;;;5050117;28;20123;-91
2022/05/20 06:56:31;;;;;;;9.55;4.13;;;16.30;77.40;;;;;;5034753;28;20045;-91
2022/05/20 06:58:59;;;;;;;10.18;4.18;;;16.40;77.40;;;;;;5053333;28;20048;-92
2022/05/20 07:01:28;;;;;;;12.38;4.15;;;16.40;77.30;;;;;;5035394;28;20044;-91
2022/05/20 07:03:55;;;;;;;10.00;3.90;;;16.40;77.30;;;;;;5043772;28;20040;-91
2022/05/20 07:06:25;;;;;;;9.23;4.15;;;16.40;77.20;;;;;;5052459;28;20049;-91
2022/05/20 07:08:52;;;;;;;9.65;3.97;;;16.40;77.20;;;;;;5063987;28;20053;-92
2022/05/20 07:11:21;;;;;;;10.88;4.35;;;16.50;77.10;;;;;;5061433;28;20053;-90
2022/05/20 07:13:52;;;;;;;9.23;4.07;;;16.60;77.00;;;;;;4988656;28;1360317;-88
2022/05/20 07:16:19;;;;;;;9.50;3.95;;;16.60;77.00;;;;;;5064338;28;20048;-89
2022/05/20 07:18:46;;;;;;;10.23;4.40;;;16.60;76.90;;;;;;5062024;28;20668;-89
2022/05/20 07:21:14;;;;;;;10.23;4.10;;;16.70;76.90;;;;;;5053472;28;20734;-90
2022/05/20 07:23:40;;;;;;;8.55;4.00;;;16.80;76.90;;;;;;5053379;28;20045;-88
2022/05/20 07:26:08;;;;;;;13.10;4.53;;;16.80;76.80;;;;;;5059467;28;20045;-89
2022/05/20 07:28:36;;;;;;;8.23;3.80;;;16.90;76.70;;;;;;5058403;28;20517;-89
2022/05/20 07:31:03;;;;;;;9.65;4.60;;;16.90;76.60;;;;;;5059687;28;20099;-90
2022/05/20 07:33:30;;;;;;;15.75;6.85;;;16.90;76.50;;;;;;5051053;28;20057;-89
2022/05/20 07:35:57;;;;;;;8.70;4.43;;;17.00;76.50;;;;;;5063046;28;20056;-89
2022/05/20 07:38:24;;;;;;;13.40;4.97;;;17.10;76.40;;;;;;5061786;28;20089;-89
2022/05/20 07:40:51;;;;;;;10.77;5.63;;;17.10;76.40;;;;;;5057994;28;20109;-90
2022/05/20 07:43:22;;;;;;;10.18;5.68;;;17.20;76.30;;;;;;5058096;28;20053;-89
2022/05/20 07:45:50;;;;;;;14.57;6.95;;;17.20;76.30;;;;;;5061473;28;20045;-89
2022/05/20 07:48:19;;;;;;;12.07;6.97;;;17.30;76.20;;;;;;5053195;28;20110;-88
2022/05/20 07:50:51;;;;;;;12.10;6.57;;;17.40;76.10;;;;;;5053075;28;20045;-89
2022/05/20 07:53:21;;;;;;;13.88;6.90;;;17.40;76.00;;;;;;5061427;28;20511;-87
2022/05/20 07:55:55;;;;;;;12.20;6.30;;;17.40;76.00;;;;;;5052573;28;20047;-89
2022/05/20 07:58:32;;;;;;;10.32;6.60;;;17.40;75.90;;;;;;5066572;28;20107;-89
2022/05/20 08:01:17;;;;;;;9.60;5.95;;;17.50;75.90;;;;;;5062471;28;20048;-89
2022/05/20 08:06:31;;;;;;;9.52;5.97;;;17.60;75.70;;;;;;5062843;28;20098;-89
2022/05/20 08:08:59;;;;;;;10.27;6.97;;;17.60;75.70;;;;;;5062486;28;20056;-89
2022/05/20 08:11:28;;;;;;;13.90;6.80;;;17.60;75.60;;;;;;5061485;28;20448;-90
2022/05/20 08:13:55;;;;;;;14.15;8.18;;;17.70;75.50;;;;;;5050503;28;20049;-90
2022/05/20 08:16:22;;;;;;;14.95;9.27;;;17.70;75.50;;;;;;5061811;28;20053;-89
2022/05/20 08:18:49;;;;;;;14.40;9.30;;;17.80;75.50;;;;;;5056558;28;20064;-90
2022/05/20 08:21:16;;;;;;;14.40;9.35;;;17.80;75.50;;;;;;5066469;28;20076;-89
2022/05/20 08:23:45;;;;;;;17.35;9.88;;;17.80;75.40;;;;;;5055782;28;20102;-90
2022/05/20 08:26:16;;;;;;;17.60;9.23;;;17.80;75.40;;;;;;5063832;28;20055;-89
2022/05/20 08:28:45;;;;;;;16.65;10.32;;;17.90;75.40;;;;;;5057822;28;20048;-88
2022/05/20 08:31:13;;;;;;;16.25;10.25;;;17.80;75.40;;;;;;5055424;28;20056;-89
2022/05/20 08:33:40;;;;;;;17.92;8.93;;;17.90;75.30;;;;;;5063488;28;20593;-89
2022/05/20 08:36:07;;;;;;;14.75;9.27;;;17.90;75.30;;;;;;5067920;28;20053;-89
2022/05/20 08:38:34;;;;;;;12.43;7.80;;;17.90;75.40;;;;;;5065683;28;20125;-89
2022/05/20 08:41:02;;;;;;;21.05;12.18;;;17.90;75.40;;;;;;5066292;28;20053;-89
2022/05/20 08:43:31;;;;;;;15.57;9.85;;;17.90;75.40;;;;;;5056506;28;20078;-90
2022/05/20 08:46:05;;;;;;;22.92;10.73;;;17.90;75.40;;;;;;5055917;28;20053;-89
2022/05/20 08:48:33;;;;;;;17.77;11.98;;;18.00;75.40;;;;;;5066239;28;20135;-89
2022/05/20 08:51:01;;;;;;;20.55;13.85;;;18.00;75.40;;;;;;5065951;28;20418;-91
2022/05/20 08:53:38;;;;;;;15.63;9.88;;;18.00;75.40;;;;;;5055981;28;20055;-90
2022/05/20 08:56:09;;;;;;;19.67;12.70;;;18.00;75.50;;;;;;5051284;28;20048;-91
2022/05/20 08:58:39;;;;;;;21.15;12.98;;;18.00;75.50;;;;;;5058335;28;20040;-90
2022/05/20 09:01:08;;;;;;;22.30;16.38;;;18.00;75.50;;;;;;5053110;28;20450;-90
2022/05/20 09:03:35;;;;;;;21.95;14.73;;;18.00;75.50;;;;;;5048409;28;20049;-89
2022/05/20 09:06:06;;;;;;;21.58;15.30;;;18.10;75.50;;;;;;5065686;28;20044;-89
2022/05/20 09:08:34;;;;;;;24.88;17.38;;;18.10;75.60;;;;;;5055723;28;20041;-88
2022/05/20 09:11:04;;;;;;;25.25;16.55;;;18.10;75.60;;;;;;5061065;28;20048;-88
2022/05/20 09:16:26;;;;;;;19.90;12.27;;;18.10;75.80;;;;;;5065603;28;20048;-89
2022/05/20 09:19:14;;;;;;;19.83;13.55;;;18.10;75.90;;;;;;5055546;28;20506;-90
2022/05/20 09:22:12;;;;;;;22.90;15.65;;;18.10;76.00;;;;;;5063661;28;20127;-87
2022/05/20 09:24:44;;;;;;;19.30;15.00;;;18.10;76.00;;;;;;5062416;28;20044;-88
2022/05/20 09:27:18;;;;;;;25.83;16.65;;;18.10;76.20;;;;;;5057074;28;20044;-88
2022/05/20 09:30:05;;;;;;;26.20;18.77;;;18.10;76.40;;;;;;5065367;28;20110;-87
2022/05/20 09:32:51;;;;;;;29.55;21.80;;;18.10;76.60;;;;;;5054814;28;20045;-87
2022/05/20 09:35:18;;;;;;;31.70;20.63;;;18.00;76.80;;;;;;5063089;28;20094;-87
2022/05/20 09:37:48;;;;;;;31.40;23.60;;;18.00;77.00;;;;;;5060341;28;20049;-87
2022/05/20 09:40:37;;;;;;;25.67;17.92;;;18.00;77.30;;;;;;5060114;28;20048;-87
2022/05/20 09:43:35;;;;;;;25.30;18.80;;;18.00;77.50;;;;;;5059740;28;20052;-89
2022/05/20 09:46:04;;;;;;;34.10;20.77;;;17.90;77.60;;;;;;5071891;28;20044;-87
2022/05/20 09:48:36;;;;;;;32.88;24.27;;;17.90;77.70;;;;;;5053391;28;20072;-89
2022/05/20 09:51:12;;;;;;;33.28;23.02;;;17.90;77.90;;;;;;5064493;28;20044;-88
2022/05/20 09:53:42;;;;;;;27.48;19.75;;;17.90;78.10;;;;;;5064742;28;20518;-90
2022/05/20 09:56:29;;;;;;;27.73;20.98;;;17.90;78.40;;;;;;5054543;28;20111;-89
2022/05/20 09:59:09;;;;;;;30.25;20.15;;;17.90;78.50;;;;;;5054105;28;20049;-90
2022/05/20 10:01:37;;;;;;;30.85;20.58;;;17.90;78.60;;;;;;5057542;28;20044;-89
2022/05/20 10:04:13;;;;;;;31.48;21.38;;;17.90;78.80;;;;;;5060864;28;20499;-90
2022/05/20 10:06:46;;;;;;;30.67;20.23;;;17.80;78.90;;;;;;5061507;28;20098;-90
2022/05/20 10:09:16;;;;;;;23.40;18.77;;;17.80;79.00;;;;;;5066178;28;20045;-89
2022/05/20 10:11:58;;;;;;;27.77;19.25;;;17.70;79.20;;;;;;5054565;28;20053;-90
2022/05/20 10:14:52;;;;;;;24.65;16.73;;;17.80;79.50;;;;;;5054248;28;20053;-90
2022/05/20 10:17:34;;;;;;;24.67;16.80;;;17.70;79.70;;;;;;5054424;28;20045;-92
2022/05/20 10:20:08;;;;;;;21.40;15.77;;;17.70;79.80;;;;;;5055167;28;20053;-91
2022/05/20 10:22:46;;;;;;;25.15;16.70;;;17.70;80.00;;;;;;5054927;28;20099;-91
2022/05/20 10:25:31;;;;;;;24.25;16.38;;;17.70;80.20;;;;;;5065545;28;20049;-93
2022/05/20 10:28:08;;;;;;;26.02;15.55;;;17.60;80.30;;;;;;5053972;28;20053;-91
2022/05/20 10:33:32;;;;;;;20.77;14.27;;;17.60;80.70;;;;;;5054872;28;20041;-92
2022/05/20 10:36:12;;;;;;;22.30;13.65;;;17.60;80.80;;;;;;5052683;28;20048;-91
2022/05/20 10:39:08;;;;;;;20.52;15.52;;;17.70;81.00;;;;;;5062591;28;20490;-90
2022/05/20 10:42:27;;;;;;;26.15;15.60;;;17.70;81.10;;;;;;5058238;28;20072;-90
2022/05/20 10:48:34;;;;;;;20.95;15.77;;;17.60;81.50;;;;;;5054253;28;20053;-91
2022/05/20 10:51:38;;;;;;;21.45;15.32;;;17.70;81.80;;;;;;5063525;28;20047;-90
2022/05/20 10:54:32;;;;;;;28.77;17.85;;;17.60;82.00;;;;;;5065951;28;20048;-91
2022/05/20 10:57:33;;;;;;;19.17;14.50;;;17.70;82.20;;;;;;5052213;28;20107;-91
2022/05/20 11:00:00;;;;;;;21.55;16.42;;;17.70;82.50;;;;;;5059089;28;20473;-92
2022/05/20 11:02:48;;;;;;;23.65;16.27;;;17.80;82.70;;;;;;5053620;28;20105;-92
2022/05/20 11:05:25;;;;;;;23.63;17.70;;;17.80;83.00;;;;;;5053283;28;20064;-91
2022/05/20 11:08:23;;;;;;;24.33;17.20;;;17.90;83.10;;;;;;5060018;28;20162;-92
2022/05/20 11:10:53;;;;;;;23.85;18.48;;;17.90;83.40;;;;;;5063887;28;20473;-92
2022/05/20 11:13:30;;;;;;;19.15;15.10;;;17.90;83.50;;;;;;5066042;28;20056;-92
2022/05/20 11:16:12;;;;;;;20.55;16.17;;;18.00;83.70;;;;;;5073446;28;20048;-94
2022/05/20 11:19:22;;;;;;;25.48;17.50;;;18.00;83.80;;;;;;5070411;28;20067;-93
2022/05/20 11:21:52;;;;;;;21.42;15.32;;;18.00;83.90;;;;;;5071468;28;20532;-92
2022/05/20 11:24:41;;;;;;;22.33;15.98;;;18.10;84.10;;;;;;5067658;28;20048;-91
2022/05/20 11:27:22;;;;;;;20.23;15.15;;;18.20;84.20;;;;;;5070838;28;20052;-93
2022/05/20 11:30:17;;;;;;;24.23;14.95;;;18.20;84.30;;;;;;5069255;28;20057;-89
2022/05/20 11:33:10;;;;;;;20.85;14.43;;;18.20;84.30;;;;;;5069296;28;20117;-90
2022/05/20 11:35:47;;;;;;;21.92;14.15;;;18.40;84.40;;;;;;5067431;28;20048;-91
2022/05/20 11:38:32;;;;;;;16.35;12.02;;;18.40;84.40;;;;;;5069370;28;20090;-90
2022/05/20 11:41:17;;;;;;;20.23;11.55;;;18.40;84.50;;;;;;5052890;28;20093;-90
2022/05/20 11:43:45;;;;;;;22.25;12.20;;;18.40;84.40;;;;;;5054000;28;20075;-88
2022/05/20 11:46:37;;;;;;;19.83;11.18;;;18.40;84.40;;;;;;5069833;28;20059;-89
2022/05/20 11:49:13;;;;;;;22.88;11.48;;;18.50;84.30;;;;;;5067292;28;20101;-92
2022/05/20 11:52:12;;;;;;;18.63;10.15;;;18.50;84.20;;;;;;5069554;28;20105;-91
2022/05/20 11:55:03;;;;;;;14.73;10.23;;;18.40;84.20;;;;;;5069837;28;20052;-90
2022/05/20 11:57:35;;;;;;;16.02;9.93;;;18.50;84.00;;;;;;4970214;28;20047;-90
2022/05/20 12:00:09;;;;;;;13.52;9.10;;;18.50;84.00;;;;;;4969784;28;20047;-90
2022/05/20 12:03:04;;;;;;;13.50;8.18;;;18.50;83.90;;;;;;4969508;28;20051;-91
2022/05/20 12:05:37;;;;;;;12.40;7.50;;;18.50;83.90;;;;;;4969717;28;20109;-91
2022/05/20 12:08:04;;;;;;;17.70;7.90;;;18.50;83.90;;;;;;4969192;28;20047;-90
2022/05/20 12:10:31;;;;;;;12.27;6.80;;;18.50;83.80;;;;;;4969765;28;20054;-91
2022/05/20 12:13:16;;;;;;;10.25;6.30;;;18.40;83.80;;;;;;4954809;28;20150;-91
2022/05/20 12:16:13;;;;;;;11.40;6.47;;;18.40;83.80;;;;;;4969152;28;20114;-90
2022/05/20 12:24:42;;;;;;;8.18;4.90;;;18.40;83.80;;;;;;4969609;28;20057;-91
2022/05/20 12:27:37;;;;;;;9.60;5.07;;;18.40;83.80;;;;;;4969431;28;20218;-90
2022/05/20 12:30:27;;;;;;;9.25;5.28;;;18.40;83.80;;;;;;4965002;28;20465;-91
2022/05/20 12:32:55;;;;;;;7.10;5.07;;;18.40;83.80;;;;;;4964652;28;20082;-90
2022/05/20 12:35:29;;;;;;;8.88;5.45;;;18.40;83.80;;;;;;5045101;28;20102;-90
2022/05/20 12:37:59;;;;;;;10.30;6.70;;;18.40;83.70;;;;;;5068384;28;20052;-89
2022/05/20 12:40:28;;;;;;;8.40;6.15;;;18.40;83.60;;;;;;5067604;28;20056;-90
2022/05/20 12:43:03;;;;;;;9.55;6.82;;;18.40;83.50;;;;;;5067051;28;20048;-89
2022/05/20 12:45:53;;;;;;;11.75;6.80;;;18.40;83.40;;;;;;5068503;28;20048;-90
2022/05/20 12:48:29;;;;;;;9.02;6.57;;;18.40;83.30;;;;;;5066790;28;20056;-90
2022/05/20 12:51:04;;;;;;;9.13;5.75;;;18.40;83.10;;;;;;5069055;28;20494;-89
2022/05/20 12:53:33;;;;;;;9.85;5.85;;;18.40;83.00;;;;;;5066717;28;20097;-90
2022/05/20 12:56:01;;;;;;;8.18;5.97;;;18.40;82.80;;;;;;5066847;28;20571;-91
2022/05/20 12:58:32;;;;;;;9.23;5.50;;;18.30;82.70;;;;;;5052881;28;20060;-90
2022/05/20 13:01:02;;;;;;;7.65;5.78;;;18.30;82.40;;;;;;5067050;28;20045;-90
2022/05/20 13:03:35;;;;;;;9.27;5.28;;;18.30;82.20;;;;;;5071486;28;20472;-90
2022/05/20 13:06:10;;;;;;;11.27;5.43;;;18.20;82.00;;;;;;5070454;28;20044;-89
2022/05/20 13:08:43;;;;;;;8.70;4.90;;;18.20;81.90;;;;;;5070454;28;20106;-89
2022/05/20 13:11:12;;;;;;;7.70;4.43;;;18.10;81.70;;;;;;5070388;28;20456;-90
2022/05/20 13:13:40;;;;;;;7.32;4.22;;;18.10;81.60;;;;;;5070474;28;20075;-91
2022/05/20 13:16:11;;;;;;;5.55;3.97;;;18.10;81.50;;;;;;5072321;28;20048;-90
2022/05/20 13:18:41;;;;;;;6.45;4.47;;;18.00;81.40;;;;;;5074378;28;20044;-89
2022/05/20 13:21:15;;;;;;;7.93;4.80;;;18.00;81.40;;;;;;5070891;28;20125;-89
2022/05/20 13:23:48;;;;;;;6.60;4.57;;;18.00;81.40;;;;;;5071713;28;20051;-89
2022/05/20 13:26:28;;;;;;;8.48;4.10;;;18.00;81.40;;;;;;5070239;28;20553;-88
2022/05/20 13:29:17;;;;;;;7.78;3.78;;;17.90;81.50;;;;;;5070096;28;20078;-89
2022/05/20 13:31:44;;;;;;;7.07;4.18;;;18.00;81.50;;;;;;5040251;28;20490;-88
2022/05/20 13:34:12;;;;;;;5.90;4.00;;;18.00;81.50;;;;;;5072462;28;20051;-88
2022/05/20 13:36:49;;;;;;;5.55;3.95;;;18.10;81.50;;;;;;5072156;28;20044;-88
2022/05/20 13:39:20;;;;;;;5.60;3.75;;;18.10;81.40;;;;;;5070301;28;20102;-88
2022/05/20 13:41:49;;;;;;;5.38;3.72;;;18.20;81.40;;;;;;5069958;28;20057;-88
2022/05/20 13:44:22;;;;;;;4.80;3.50;;;18.20;81.20;;;;;;5071555;28;20041;-88
2022/05/20 13:49:44;;;;;;;4.78;3.35;;;18.30;80.80;;;;;;5055985;28;20506;-87
2022/05/20 13:52:14;;;;;;;5.85;3.22;;;18.30;80.60;;;;;;5054605;28;20517;-88
2022/05/20 13:55:05;;;;;;;6.03;4.07;;;18.30;80.50;;;;;;5072301;28;20049;-87